sensor_id;sensor_type;location;lat;lon;timestamp;temperature;humidity
16767;DHT22;8501;49.926;8.404;2023-07-31T00:00:38;20.20;99.90
16767;DHT22;8501;49.926;8.404;2023-07-31T00:03:04;20.30;99.90
16767;DHT22;8501;49.926;8.404;2023-07-31T00:05:29;20.20;99.90
16767;DHT22;8501;49.926;8.404;2023-07-31T00:07:55;20.30;99.90
16767;DHT22;8501;49.926;8.404;2023-07-31T00:10:20;20.30;99.90
16767;DHT22;8501;49.926;8.404;2023-07-31T00:12:46;20.30;99.90
16767;DHT22;8501;49.926;8.404;2023-07-31T00:15:13;20.30;99.90
16767;DHT22;8501;49.926;8.404;2023-07-31T00:17:39;20.30;99.90
16767;DHT22;8501;49.926;8.404;2023-07-31T00:20:05;20.30;99.90
16767;DHT22;8501;49.926;8.404;2023-07-31T00:22:30;20.30;99.90
16767;DHT22;8501;49.926;8.404;2023-07-31T00:24:56;20.30;99.90
16767;DHT22;8501;49.926;8.404;2023-07-31T00:27:22;20.20;99.90
16767;DHT22;8501;49.926;8.404;2023-07-31T00:29:48;20.30;99.90
16767;DHT22;8501;49.926;8.404;2023-07-31T00:32:13;20.30;99.90
16767;DHT22;8501;49.926;8.404;2023-07-31T00:34:39;20.30;99.90
16767;DHT22;8501;49.926;8.404;2023-07-31T00:37:05;20.30;99.90
16767;DHT22;8501;49.926;8.404;2023-07-31T00:39:31;20.30;99.90
16767;DHT22;8501;49.926;8.404;2023-07-31T00:41:56;20.30;99.90
16767;DHT22;8501;49.926;8.404;2023-07-31T00:44:22;20.30;99.90
16767;DHT22;8501;49.926;8.404;2023-07-31T00:46:48;20.30;99.90
16767;DHT22;8501;49.926;8.404;2023-07-31T00:49:14;20.30;99.90
16767;DHT22;8501;49.926;8.404;2023-07-31T00:51:39;20.20;99.90
16767;DHT22;8501;49.926;8.404;2023-07-31T00:54:06;20.20;99.90
16767;DHT22;8501;49.926;8.404;2023-07-31T00:56:32;20.30;99.90
16767;DHT22;8501;49.926;8.404;2023-07-31T00:58:58;20.20;99.90
16767;DHT22;8501;49.926;8.404;2023-07-31T01:01:24;20.20;99.90
16767;DHT22;8501;49.926;8.404;2023-07-31T01:03:51;20.20;99.90
16767;DHT22;8501;49.926;8.404;2023-07-31T01:06:39;20.20;99.90
16767;DHT22;8501;49.926;8.404;2023-07-31T01:09:08;20.20;99.90
16767;DHT22;8501;49.926;8.404;2023-07-31T01:11:46;20.30;99.90
16767;DHT22;8501;49.926;8.404;2023-07-31T01:14:13;20.20;99.90
16767;DHT22;8501;49.926;8.404;2023-07-31T01:16:38;20.20;99.90
16767;DHT22;8501;49.926;8.404;2023-07-31T01:19:04;20.30;99.90
16767;DHT22;8501;49.926;8.404;2023-07-31T01:22:09;20.20;99.90
16767;DHT22;8501;49.926;8.404;2023-07-31T01:25:16;20.20;99.90
16767;DHT22;8501;49.926;8.404;2023-07-31T01:30:27;20.20;99.90
16767;DHT22;8501;49.926;8.404;2023-07-31T01:32:54;20.20;99.90
16767;DHT22;8501;49.926;8.404;2023-07-31T01:35:21;20.10;99.90
16767;DHT22;8501;49.926;8.404;2023-07-31T01:37:47;20.10;99.90
16767;DHT22;8501;49.926;8.404;2023-07-31T01:40:12;20.10;99.90
16767;DHT22;8501;49.926;8.404;2023-07-31T01:42:38;20.10;99.90
16767;DHT22;8501;49.926;8.404;2023-07-31T01:45:03;20.00;99.90
16767;DHT22;8501;49.926;8.404;2023-07-31T01:47:29;20.00;99.90
16767;DHT22;8501;49.926;8.404;2023-07-31T01:49:55;20.00;99.90
16767;DHT22;8501;49.926;8.404;2023-07-31T01:52:20;20.10;99.90
16767;DHT22;8501;49.926;8.404;2023-07-31T01:54:46;20.10;99.90
16767;DHT22;8501;49.926;8.404;2023-07-31T01:57:12;20.10;99.90
16767;DHT22;8501;49.926;8.404;2023-07-31T01:59:37;20.10;99.90
16767;DHT22;8501;49.926;8.404;2023-07-31T02:02:03;20.10;99.90
16767;DHT22;8501;49.926;8.404;2023-07-31T02:04:28;20.00;99.90
16767;DHT22;8501;49.926;8.404;2023-07-31T02:06:54;20.00;99.90
16767;DHT22;8501;49.926;8.404;2023-07-31T02:09:19;20.00;99.90
16767;DHT22;8501;49.926;8.404;2023-07-31T02:11:45;20.00;99.90
16767;DHT22;8501;49.926;8.404;2023-07-31T02:14:10;19.90;99.90
16767;DHT22;8501;49.926;8.404;2023-07-31T02:16:36;19.90;99.90
16767;DHT22;8501;49.926;8.404;2023-07-31T02:19:01;19.90;99.90
16767;DHT22;8501;49.926;8.404;2023-07-31T02:21:27;19.90;99.90
16767;DHT22;8501;49.926;8.404;2023-07-31T02:23:52;19.90;99.90
16767;DHT22;8501;49.926;8.404;2023-07-31T02:26:18;19.90;99.90
16767;DHT22;8501;49.926;8.404;2023-07-31T02:28:43;19.90;99.90
16767;DHT22;8501;49.926;8.404;2023-07-31T02:31:09;19.90;99.90
16767;DHT22;8501;49.926;8.404;2023-07-31T02:33:34;19.90;99.90
16767;DHT22;8501;49.926;8.404;2023-07-31T02:36:00;19.80;99.90
16767;DHT22;8501;49.926;8.404;2023-07-31T02:38:26;19.80;99.90
16767;DHT22;8501;49.926;8.404;2023-07-31T02:40:51;19.80;99.90
16767;DHT22;8501;49.926;8.404;2023-07-31T02:43:17;19.80;99.90
16767;DHT22;8501;49.926;8.404;2023-07-31T02:45:42;19.80;99.90
16767;DHT22;8501;49.926;8.404;2023-07-31T02:48:08;19.80;99.90
16767;DHT22;8501;49.926;8.404;2023-07-31T02:50:33;19.80;99.90
16767;DHT22;8501;49.926;8.404;2023-07-31T02:52:59;19.80;99.90
16767;DHT22;8501;49.926;8.404;2023-07-31T02:55:24;19.80;99.90
16767;DHT22;8501;49.926;8.404;2023-07-31T02:57:50;19.80;99.90
16767;DHT22;8501;49.926;8.404;2023-07-31T03:00:17;19.80;99.90
16767;DHT22;8501;49.926;8.404;2023-07-31T03:02:43;19.80;99.90
16767;DHT22;8501;49.926;8.404;2023-07-31T03:05:08;19.80;99.90
16767;DHT22;8501;49.926;8.404;2023-07-31T03:07:34;19.80;99.90
16767;DHT22;8501;49.926;8.404;2023-07-31T03:10:00;19.80;99.90
16767;DHT22;8501;49.926;8.404;2023-07-31T03:12:25;19.80;99.90
16767;DHT22;8501;49.926;8.404;2023-07-31T03:14:51;19.80;99.90
16767;DHT22;8501;49.926;8.404;2023-07-31T03:17:16;19.80;99.90
16767;DHT22;8501;49.926;8.404;2023-07-31T03:19:42;19.80;99.90
16767;DHT22;8501;49.926;8.404;2023-07-31T03:22:07;19.80;99.90
16767;DHT22;8501;49.926;8.404;2023-07-31T03:24:33;19.80;99.90
16767;DHT22;8501;49.926;8.404;2023-07-31T03:26:58;19.70;99.90
16767;DHT22;8501;49.926;8.404;2023-07-31T03:29:24;19.70;99.90
16767;DHT22;8501;49.926;8.404;2023-07-31T03:31:49;19.70;99.90
16767;DHT22;8501;49.926;8.404;2023-07-31T03:34:15;19.70;99.90
16767;DHT22;8501;49.926;8.404;2023-07-31T03:36:40;19.70;99.90
16767;DHT22;8501;49.926;8.404;2023-07-31T03:39:06;19.70;99.90
16767;DHT22;8501;49.926;8.404;2023-07-31T03:41:31;19.70;99.90
16767;DHT22;8501;49.926;8.404;2023-07-31T03:43:57;19.70;99.90
16767;DHT22;8501;49.926;8.404;2023-07-31T03:46:23;19.60;99.90
16767;DHT22;8501;49.926;8.404;2023-07-31T03:48:49;19.50;99.90
16767;DHT22;8501;49.926;8.404;2023-07-31T03:51:15;19.60;99.90
16767;DHT22;8501;49.926;8.404;2023-07-31T03:53:40;19.60;99.90
16767;DHT22;8501;49.926;8.404;2023-07-31T03:56:06;19.50;99.90
16767;DHT22;8501;49.926;8.404;2023-07-31T03:58:31;19.50;99.90
16767;DHT22;8501;49.926;8.404;2023-07-31T04:00:57;19.50;99.90
16767;DHT22;8501;49.926;8.404;2023-07-31T04:03:23;19.50;99.90
16767;DHT22;8501;49.926;8.404;2023-07-31T04:05:48;19.50;99.90
16767;DHT22;8501;49.926;8.404;2023-07-31T04:08:14;19.40;99.90
16767;DHT22;8501;49.926;8.404;2023-07-31T04:10:39;19.40;99.90
16767;DHT22;8501;49.926;8.404;2023-07-31T04:13:05;19.40;99.90
16767;DHT22;8501;49.926;8.404;2023-07-31T04:15:30;19.30;99.90
16767;DHT22;8501;49.926;8.404;2023-07-31T04:17:56;19.30;99.90
16767;DHT22;8501;49.926;8.404;2023-07-31T04:20:21;19.30;99.90
16767;DHT22;8501;49.926;8.404;2023-07-31T04:22:47;19.30;99.90
16767;DHT22;8501;49.926;8.404;2023-07-31T04:25:13;19.40;99.90
16767;DHT22;8501;49.926;8.404;2023-07-31T04:27:39;19.40;99.90
16767;DHT22;8501;49.926;8.404;2023-07-31T04:30:05;19.30;99.90
16767;DHT22;8501;49.926;8.404;2023-07-31T04:32:31;19.20;99.90
16767;DHT22;8501;49.926;8.404;2023-07-31T04:34:57;19.20;99.90
16767;DHT22;8501;49.926;8.404;2023-07-31T04:37:22;19.20;99.90
16767;DHT22;8501;49.926;8.404;2023-07-31T04:39:48;19.30;99.90
16767;DHT22;8501;49.926;8.404;2023-07-31T04:42:13;19.30;99.90
16767;DHT22;8501;49.926;8.404;2023-07-31T04:44:39;19.30;99.90
16767;DHT22;8501;49.926;8.404;2023-07-31T04:47:04;19.30;99.90
16767;DHT22;8501;49.926;8.404;2023-07-31T04:49:32;19.30;99.90
16767;DHT22;8501;49.926;8.404;2023-07-31T04:51:58;19.30;99.90
16767;DHT22;8501;49.926;8.404;2023-07-31T04:54:23;19.30;99.90
16767;DHT22;8501;49.926;8.404;2023-07-31T04:56:49;19.20;99.90
16767;DHT22;8501;49.926;8.404;2023-07-31T04:59:14;19.30;99.90
16767;DHT22;8501;49.926;8.404;2023-07-31T05:01:40;19.20;99.90
16767;DHT22;8501;49.926;8.404;2023-07-31T05:04:05;19.30;99.90
16767;DHT22;8501;49.926;8.404;2023-07-31T05:06:31;19.30;99.90
16767;DHT22;8501;49.926;8.404;2023-07-31T05:08:56;19.20;99.90
16767;DHT22;8501;49.926;8.404;2023-07-31T05:11:22;19.20;99.90
16767;DHT22;8501;49.926;8.404;2023-07-31T05:13:47;19.30;99.90
16767;DHT22;8501;49.926;8.404;2023-07-31T05:16:13;19.30;99.90
16767;DHT22;8501;49.926;8.404;2023-07-31T05:18:38;19.30;99.90
16767;DHT22;8501;49.926;8.404;2023-07-31T05:21:04;19.20;99.90
16767;DHT22;8501;49.926;8.404;2023-07-31T05:23:29;19.20;99.90
16767;DHT22;8501;49.926;8.404;2023-07-31T05:26:03;19.20;99.90
16767;DHT22;8501;49.926;8.404;2023-07-31T05:28:29;19.20;99.90
16767;DHT22;8501;49.926;8.404;2023-07-31T05:30:59;19.20;99.90
16767;DHT22;8501;49.926;8.404;2023-07-31T05:33:25;19.20;99.90
16767;DHT22;8501;49.926;8.404;2023-07-31T05:35:50;19.20;99.90
16767;DHT22;8501;49.926;8.404;2023-07-31T05:38:16;19.30;99.90
16767;DHT22;8501;49.926;8.404;2023-07-31T05:40:42;19.30;99.90
16767;DHT22;8501;49.926;8.404;2023-07-31T05:43:08;19.20;99.90
16767;DHT22;8501;49.926;8.404;2023-07-31T05:45:34;19.20;99.90
16767;DHT22;8501;49.926;8.404;2023-07-31T05:48:00;19.20;99.90
16767;DHT22;8501;49.926;8.404;2023-07-31T05:50:26;19.30;99.90
16767;DHT22;8501;49.926;8.404;2023-07-31T05:52:51;19.20;99.90
16767;DHT22;8501;49.926;8.404;2023-07-31T05:55:17;19.30;99.90
16767;DHT22;8501;49.926;8.404;2023-07-31T05:57:43;19.30;99.90
16767;DHT22;8501;49.926;8.404;2023-07-31T06:00:11;19.30;99.90
16767;DHT22;8501;49.926;8.404;2023-07-31T06:02:37;19.30;99.90
16767;DHT22;8501;49.926;8.404;2023-07-31T06:05:04;19.30;99.90
16767;DHT22;8501;49.926;8.404;2023-07-31T06:07:31;19.30;99.90
16767;DHT22;8501;49.926;8.404;2023-07-31T06:09:57;19.40;99.90
16767;DHT22;8501;49.926;8.404;2023-07-31T06:12:27;19.40;99.90
16767;DHT22;8501;49.926;8.404;2023-07-31T06:14:52;19.40;99.90
16767;DHT22;8501;49.926;8.404;2023-07-31T06:17:18;19.40;99.90
16767;DHT22;8501;49.926;8.404;2023-07-31T06:19:43;19.50;99.90
16767;DHT22;8501;49.926;8.404;2023-07-31T06:22:09;19.50;99.90
16767;DHT22;8501;49.926;8.404;2023-07-31T06:24:35;19.50;99.90
16767;DHT22;8501;49.926;8.404;2023-07-31T06:27:00;19.50;99.90
16767;DHT22;8501;49.926;8.404;2023-07-31T06:29:28;19.50;99.90
16767;DHT22;8501;49.926;8.404;2023-07-31T06:31:53;19.50;99.90
16767;DHT22;8501;49.926;8.404;2023-07-31T06:34:19;19.50;99.90
16767;DHT22;8501;49.926;8.404;2023-07-31T06:36:44;19.50;99.90
16767;DHT22;8501;49.926;8.404;2023-07-31T06:39:10;19.60;99.90
16767;DHT22;8501;49.926;8.404;2023-07-31T06:41:35;19.60;99.90
16767;DHT22;8501;49.926;8.404;2023-07-31T06:44:01;19.60;99.90
16767;DHT22;8501;49.926;8.404;2023-07-31T06:46:26;19.60;99.90
16767;DHT22;8501;49.926;8.404;2023-07-31T06:48:52;19.60;99.90
16767;DHT22;8501;49.926;8.404;2023-07-31T06:51:17;19.60;99.90
16767;DHT22;8501;49.926;8.404;2023-07-31T06:53:43;19.70;99.90
16767;DHT22;8501;49.926;8.404;2023-07-31T06:56:10;19.70;99.90
16767;DHT22;8501;49.926;8.404;2023-07-31T06:58:36;19.80;99.90
16767;DHT22;8501;49.926;8.404;2023-07-31T07:01:01;19.80;99.90
16767;DHT22;8501;49.926;8.404;2023-07-31T07:03:27;19.90;99.90
16767;DHT22;8501;49.926;8.404;2023-07-31T07:05:53;19.90;99.90
16767;DHT22;8501;49.926;8.404;2023-07-31T07:08:18;19.90;99.90
16767;DHT22;8501;49.926;8.404;2023-07-31T07:10:44;19.90;99.90
16767;DHT22;8501;49.926;8.404;2023-07-31T07:13:09;20.00;99.90
16767;DHT22;8501;49.926;8.404;2023-07-31T07:15:35;20.00;99.90
16767;DHT22;8501;49.926;8.404;2023-07-31T07:18:00;20.10;99.90
16767;DHT22;8501;49.926;8.404;2023-07-31T07:20:26;20.10;99.90
16767;DHT22;8501;49.926;8.404;2023-07-31T07:22:51;20.10;99.90
16767;DHT22;8501;49.926;8.404;2023-07-31T07:25:17;20.10;99.90
16767;DHT22;8501;49.926;8.404;2023-07-31T07:27:42;20.20;99.90
16767;DHT22;8501;49.926;8.404;2023-07-31T07:30:09;20.20;99.90
16767;DHT22;8501;49.926;8.404;2023-07-31T07:32:35;20.30;99.90
16767;DHT22;8501;49.926;8.404;2023-07-31T07:35:01;20.30;99.90
16767;DHT22;8501;49.926;8.404;2023-07-31T07:37:26;20.40;99.90
16767;DHT22;8501;49.926;8.404;2023-07-31T07:39:52;20.40;99.90
16767;DHT22;8501;49.926;8.404;2023-07-31T07:42:18;20.40;99.90
16767;DHT22;8501;49.926;8.404;2023-07-31T07:44:43;20.50;99.90
16767;DHT22;8501;49.926;8.404;2023-07-31T07:47:09;20.50;99.90
16767;DHT22;8501;49.926;8.404;2023-07-31T07:49:34;20.50;99.90
16767;DHT22;8501;49.926;8.404;2023-07-31T07:52:01;20.50;99.90
16767;DHT22;8501;49.926;8.404;2023-07-31T07:54:26;20.60;99.90
16767;DHT22;8501;49.926;8.404;2023-07-31T07:56:52;20.70;99.90
16767;DHT22;8501;49.926;8.404;2023-07-31T07:59:18;20.80;99.90
16767;DHT22;8501;49.926;8.404;2023-07-31T08:01:43;20.80;99.90
16767;DHT22;8501;49.926;8.404;2023-07-31T08:04:09;20.80;99.90
16767;DHT22;8501;49.926;8.404;2023-07-31T08:06:34;20.80;99.90
16767;DHT22;8501;49.926;8.404;2023-07-31T08:09:00;20.70;99.90
16767;DHT22;8501;49.926;8.404;2023-07-31T08:11:30;20.80;99.90
16767;DHT22;8501;49.926;8.404;2023-07-31T08:13:56;20.80;99.90
16767;DHT22;8501;49.926;8.404;2023-07-31T08:16:21;20.90;99.90
16767;DHT22;8501;49.926;8.404;2023-07-31T10:22:20;21.80;99.90
16767;DHT22;8501;49.926;8.404;2023-07-31T10:24:46;21.90;99.90
16767;DHT22;8501;49.926;8.404;2023-07-31T10:27:13;21.90;99.90
16767;DHT22;8501;49.926;8.404;2023-07-31T10:29:40;21.90;99.90
16767;DHT22;8501;49.926;8.404;2023-07-31T10:32:07;22.00;99.90
16767;DHT22;8501;49.926;8.404;2023-07-31T10:34:36;21.90;99.90
16767;DHT22;8501;49.926;8.404;2023-07-31T10:42:47;22.20;99.90
16767;DHT22;8501;49.926;8.404;2023-07-31T10:45:13;22.20;99.90
16767;DHT22;8501;49.926;8.404;2023-07-31T10:47:43;22.30;99.90
16767;DHT22;8501;49.926;8.404;2023-07-31T10:50:22;22.20;99.90
16767;DHT22;8501;49.926;8.404;2023-07-31T10:52:57;22.30;99.90
16767;DHT22;8501;49.926;8.404;2023-07-31T10:58:07;22.20;99.90
16767;DHT22;8501;49.926;8.404;2023-07-31T11:00:33;22.20;99.90
16767;DHT22;8501;49.926;8.404;2023-07-31T11:03:06;22.20;99.90
16767;DHT22;8501;49.926;8.404;2023-07-31T11:06:03;22.20;99.90
16767;DHT22;8501;49.926;8.404;2023-07-31T11:08:30;22.10;99.90
16767;DHT22;8501;49.926;8.404;2023-07-31T11:13:33;22.20;99.90
16767;DHT22;8501;49.926;8.404;2023-07-31T11:15:59;22.30;99.90
16767;DHT22;8501;49.926;8.404;2023-07-31T11:18:28;22.30;99.90
16767;DHT22;8501;49.926;8.404;2023-07-31T11:20:54;22.30;99.90
16767;DHT22;8501;49.926;8.404;2023-07-31T11:23:21;22.40;99.90
16767;DHT22;8501;49.926;8.404;2023-07-31T11:25:46;22.40;99.90
16767;DHT22;8501;49.926;8.404;2023-07-31T11:28:14;22.50;99.90
16767;DHT22;8501;49.926;8.404;2023-07-31T11:30:40;22.50;99.90
16767;DHT22;8501;49.926;8.404;2023-07-31T11:33:07;22.50;99.90
16767;DHT22;8501;49.926;8.404;2023-07-31T11:35:34;22.40;99.90
16767;DHT22;8501;49.926;8.404;2023-07-31T11:38:01;22.50;99.90
16767;DHT22;8501;49.926;8.404;2023-07-31T11:40:27;22.50;99.90
16767;DHT22;8501;49.926;8.404;2023-07-31T11:42:58;22.50;99.90
16767;DHT22;8501;49.926;8.404;2023-07-31T11:45:30;22.50;99.90
16767;DHT22;8501;49.926;8.404;2023-07-31T11:47:56;22.50;99.90
16767;DHT22;8501;49.926;8.404;2023-07-31T11:50:23;22.50;99.90
16767;DHT22;8501;49.926;8.404;2023-07-31T11:52:55;22.50;99.90
16767;DHT22;8501;49.926;8.404;2023-07-31T11:55:22;22.60;99.90
16767;DHT22;8501;49.926;8.404;2023-07-31T11:57:48;22.60;99.90
16767;DHT22;8501;49.926;8.404;2023-07-31T12:00:15;22.70;99.90
16767;DHT22;8501;49.926;8.404;2023-07-31T12:02:42;22.70;99.90
16767;DHT22;8501;49.926;8.404;2023-07-31T12:05:12;22.80;99.90
16767;DHT22;8501;49.926;8.404;2023-07-31T12:07:51;22.80;99.90
16767;DHT22;8501;49.926;8.404;2023-07-31T12:10:31;22.80;99.90
16767;DHT22;8501;49.926;8.404;2023-07-31T12:12:59;22.80;99.90
16767;DHT22;8501;49.926;8.404;2023-07-31T12:15:42;22.80;99.90
16767;DHT22;8501;49.926;8.404;2023-07-31T12:20:35;22.70;99.90
16767;DHT22;8501;49.926;8.404;2023-07-31T12:23:01;22.70;99.90
16767;DHT22;8501;49.926;8.404;2023-07-31T12:25:33;22.70;99.90
16767;DHT22;8501;49.926;8.404;2023-07-31T12:28:04;22.70;99.90
16767;DHT22;8501;49.926;8.404;2023-07-31T12:30:33;22.70;99.90
16767;DHT22;8501;49.926;8.404;2023-07-31T12:33:04;22.70;99.90
16767;DHT22;8501;49.926;8.404;2023-07-31T12:35:41;22.80;99.90
16767;DHT22;8501;49.926;8.404;2023-07-31T12:38:08;22.80;99.90
16767;DHT22;8501;49.926;8.404;2023-07-31T12:40:37;22.90;99.90
16767;DHT22;8501;49.926;8.404;2023-07-31T12:43:02;23.00;99.90
16767;DHT22;8501;49.926;8.404;2023-07-31T12:45:29;23.10;99.90
16767;DHT22;8501;49.926;8.404;2023-07-31T12:47:55;23.10;99.90
16767;DHT22;8501;49.926;8.404;2023-07-31T12:50:21;23.30;99.90
16767;DHT22;8501;49.926;8.404;2023-07-31T12:52:47;23.40;99.90
16767;DHT22;8501;49.926;8.404;2023-07-31T12:55:12;23.40;99.90
16767;DHT22;8501;49.926;8.404;2023-07-31T12:57:39;23.40;99.90
16767;DHT22;8501;49.926;8.404;2023-07-31T13:00:06;23.50;99.90
16767;DHT22;8501;49.926;8.404;2023-07-31T13:02:32;23.70;99.90
16767;DHT22;8501;49.926;8.404;2023-07-31T13:04:57;23.80;99.90
16767;DHT22;8501;49.926;8.404;2023-07-31T13:07:23;23.90;99.90
16767;DHT22;8501;49.926;8.404;2023-07-31T13:09:48;23.80;99.90
16767;DHT22;8501;49.926;8.404;2023-07-31T13:12:14;23.80;99.90
16767;DHT22;8501;49.926;8.404;2023-07-31T13:14:40;23.70;99.90
16767;DHT22;8501;49.926;8.404;2023-07-31T13:17:05;23.70;99.90
16767;DHT22;8501;49.926;8.404;2023-07-31T13:19:31;23.60;99.90
16767;DHT22;8501;49.926;8.404;2023-07-31T13:21:57;23.60;99.90
16767;DHT22;8501;49.926;8.404;2023-07-31T13:24:22;23.60;99.90
16767;DHT22;8501;49.926;8.404;2023-07-31T13:26:48;23.50;99.90
16767;DHT22;8501;49.926;8.404;2023-07-31T13:29:13;23.40;99.90
16767;DHT22;8501;49.926;8.404;2023-07-31T13:31:39;23.40;99.90
16767;DHT22;8501;49.926;8.404;2023-07-31T13:34:04;23.40;99.90
16767;DHT22;8501;49.926;8.404;2023-07-31T13:36:30;23.40;99.90
16767;DHT22;8501;49.926;8.404;2023-07-31T13:38:55;23.50;99.90
16767;DHT22;8501;49.926;8.404;2023-07-31T13:41:21;23.40;99.90
16767;DHT22;8501;49.926;8.404;2023-07-31T13:43:46;23.40;99.90
16767;DHT22;8501;49.926;8.404;2023-07-31T13:46:12;23.40;99.90
16767;DHT22;8501;49.926;8.404;2023-07-31T13:48:37;23.40;99.90
16767;DHT22;8501;49.926;8.404;2023-07-31T13:51:03;23.40;99.90
16767;DHT22;8501;49.926;8.404;2023-07-31T13:53:29;23.40;99.90
16767;DHT22;8501;49.926;8.404;2023-07-31T13:55:54;23.40;99.90
16767;DHT22;8501;49.926;8.404;2023-07-31T13:58:20;23.40;99.90
16767;DHT22;8501;49.926;8.404;2023-07-31T14:00:46;23.30;99.90
16767;DHT22;8501;49.926;8.404;2023-07-31T14:03:11;23.30;99.90
16767;DHT22;8501;49.926;8.404;2023-07-31T14:05:37;23.20;99.90
16767;DHT22;8501;49.926;8.404;2023-07-31T14:08:03;23.20;99.90
16767;DHT22;8501;49.926;8.404;2023-07-31T14:10:28;23.10;99.90
16767;DHT22;8501;49.926;8.404;2023-07-31T14:12:54;23.00;99.90
16767;DHT22;8501;49.926;8.404;2023-07-31T14:15:20;23.00;99.90
16767;DHT22;8501;49.926;8.404;2023-07-31T14:17:45;23.10;99.90
16767;DHT22;8501;49.926;8.404;2023-07-31T14:20:11;23.00;99.90
16767;DHT22;8501;49.926;8.404;2023-07-31T14:22:37;23.00;99.90
16767;DHT22;8501;49.926;8.404;2023-07-31T14:25:03;23.00;99.90
16767;DHT22;8501;49.926;8.404;2023-07-31T14:27:29;23.00;99.90
16767;DHT22;8501;49.926;8.404;2023-07-31T14:29:54;22.90;99.90
16767;DHT22;8501;49.926;8.404;2023-07-31T14:32:21;22.80;99.90
16767;DHT22;8501;49.926;8.404;2023-07-31T14:34:46;22.80;99.90
16767;DHT22;8501;49.926;8.404;2023-07-31T14:37:12;22.90;99.90
16767;DHT22;8501;49.926;8.404;2023-07-31T14:39:37;22.90;99.90
16767;DHT22;8501;49.926;8.404;2023-07-31T14:42:03;23.00;99.90
16767;DHT22;8501;49.926;8.404;2023-07-31T14:44:29;23.00;99.90
16767;DHT22;8501;49.926;8.404;2023-07-31T14:46:54;23.00;99.90
16767;DHT22;8501;49.926;8.404;2023-07-31T14:49:20;23.00;99.90
16767;DHT22;8501;49.926;8.404;2023-07-31T14:51:45;23.00;99.90
16767;DHT22;8501;49.926;8.404;2023-07-31T14:54:11;22.90;99.90
16767;DHT22;8501;49.926;8.404;2023-07-31T14:56:36;22.90;99.90
16767;DHT22;8501;49.926;8.404;2023-07-31T14:59:02;23.00;99.90
16767;DHT22;8501;49.926;8.404;2023-07-31T15:01:28;22.90;99.90
16767;DHT22;8501;49.926;8.404;2023-07-31T15:03:53;22.90;99.90
16767;DHT22;8501;49.926;8.404;2023-07-31T15:06:19;22.90;99.90
16767;DHT22;8501;49.926;8.404;2023-07-31T15:08:44;22.90;99.90
16767;DHT22;8501;49.926;8.404;2023-07-31T15:11:10;22.90;99.90
16767;DHT22;8501;49.926;8.404;2023-07-31T15:13:36;22.90;99.90
16767;DHT22;8501;49.926;8.404;2023-07-31T15:16:01;22.90;99.90
16767;DHT22;8501;49.926;8.404;2023-07-31T15:18:27;22.90;99.90
16767;DHT22;8501;49.926;8.404;2023-07-31T15:20:53;22.90;99.90
16767;DHT22;8501;49.926;8.404;2023-07-31T15:23:19;22.80;99.90
16767;DHT22;8501;49.926;8.404;2023-07-31T15:25:44;22.80;99.90
16767;DHT22;8501;49.926;8.404;2023-07-31T15:28:10;22.80;99.90
16767;DHT22;8501;49.926;8.404;2023-07-31T15:30:36;22.70;99.90
16767;DHT22;8501;49.926;8.404;2023-07-31T15:33:03;22.60;99.90
16767;DHT22;8501;49.926;8.404;2023-07-31T15:35:28;22.60;99.90
16767;DHT22;8501;49.926;8.404;2023-07-31T15:37:55;22.60;99.90
16767;DHT22;8501;49.926;8.404;2023-07-31T15:40:20;22.60;99.90
16767;DHT22;8501;49.926;8.404;2023-07-31T15:42:46;22.50;99.90
16767;DHT22;8501;49.926;8.404;2023-07-31T15:45:11;22.60;99.90
16767;DHT22;8501;49.926;8.404;2023-07-31T15:47:37;22.50;99.90
16767;DHT22;8501;49.926;8.404;2023-07-31T15:50:03;22.50;99.90
16767;DHT22;8501;49.926;8.404;2023-07-31T15:52:29;22.50;99.90
16767;DHT22;8501;49.926;8.404;2023-07-31T15:54:55;22.50;99.90
16767;DHT22;8501;49.926;8.404;2023-07-31T15:57:20;22.50;99.90
16767;DHT22;8501;49.926;8.404;2023-07-31T15:59:46;22.40;99.90
16767;DHT22;8501;49.926;8.404;2023-07-31T16:02:11;22.50;99.90
16767;DHT22;8501;49.926;8.404;2023-07-31T16:04:37;22.40;99.90
16767;DHT22;8501;49.926;8.404;2023-07-31T16:07:02;22.40;99.90
16767;DHT22;8501;49.926;8.404;2023-07-31T16:09:28;22.50;99.90
16767;DHT22;8501;49.926;8.404;2023-07-31T16:11:54;22.50;99.90
16767;DHT22;8501;49.926;8.404;2023-07-31T16:14:19;22.40;99.90
16767;DHT22;8501;49.926;8.404;2023-07-31T16:16:45;22.50;99.90
16767;DHT22;8501;49.926;8.404;2023-07-31T16:19:12;22.50;99.90
16767;DHT22;8501;49.926;8.404;2023-07-31T16:21:37;22.40;99.90
16767;DHT22;8501;49.926;8.404;2023-07-31T16:24:03;22.40;99.90
16767;DHT22;8501;49.926;8.404;2023-07-31T16:26:28;22.40;99.90
16767;DHT22;8501;49.926;8.404;2023-07-31T16:28:54;22.40;99.90
16767;DHT22;8501;49.926;8.404;2023-07-31T16:31:19;22.40;99.90
16767;DHT22;8501;49.926;8.404;2023-07-31T16:33:45;22.30;99.90
16767;DHT22;8501;49.926;8.404;2023-07-31T16:36:11;22.20;99.90
16767;DHT22;8501;49.926;8.404;2023-07-31T16:38:36;22.20;99.90
16767;DHT22;8501;49.926;8.404;2023-07-31T16:41:02;22.10;99.90
16767;DHT22;8501;49.926;8.404;2023-07-31T16:43:27;22.00;99.90
16767;DHT22;8501;49.926;8.404;2023-07-31T16:45:55;21.90;99.90
16767;DHT22;8501;49.926;8.404;2023-07-31T16:48:21;21.80;99.90
16767;DHT22;8501;49.926;8.404;2023-07-31T16:50:46;21.90;99.90
16767;DHT22;8501;49.926;8.404;2023-07-31T16:53:12;21.80;99.90
16767;DHT22;8501;49.926;8.404;2023-07-31T16:55:38;21.80;99.90
16767;DHT22;8501;49.926;8.404;2023-07-31T16:58:03;21.70;99.90
16767;DHT22;8501;49.926;8.404;2023-07-31T17:00:29;21.60;99.90
16767;DHT22;8501;49.926;8.404;2023-07-31T17:02:55;21.60;99.90
16767;DHT22;8501;49.926;8.404;2023-07-31T17:05:20;21.70;99.90
16767;DHT22;8501;49.926;8.404;2023-07-31T17:07:46;21.60;99.90
16767;DHT22;8501;49.926;8.404;2023-07-31T17:10:11;21.50;99.90
16767;DHT22;8501;49.926;8.404;2023-07-31T17:12:37;21.50;99.90
16767;DHT22;8501;49.926;8.404;2023-07-31T17:15:03;21.50;99.90
16767;DHT22;8501;49.926;8.404;2023-07-31T17:17:29;21.50;99.90
16767;DHT22;8501;49.926;8.404;2023-07-31T17:19:54;21.40;99.90
16767;DHT22;8501;49.926;8.404;2023-07-31T17:22:20;21.40;99.90
16767;DHT22;8501;49.926;8.404;2023-07-31T17:24:45;21.40;99.90
16767;DHT22;8501;49.926;8.404;2023-07-31T17:27:11;21.30;99.90
16767;DHT22;8501;49.926;8.404;2023-07-31T17:29:36;21.30;99.90
16767;DHT22;8501;49.926;8.404;2023-07-31T17:32:02;21.30;99.90
16767;DHT22;8501;49.926;8.404;2023-07-31T17:34:27;21.30;99.90
16767;DHT22;8501;49.926;8.404;2023-07-31T17:36:53;21.30;99.90
16767;DHT22;8501;49.926;8.404;2023-07-31T17:39:19;21.30;99.90
16767;DHT22;8501;49.926;8.404;2023-07-31T17:41:44;21.30;99.90
16767;DHT22;8501;49.926;8.404;2023-07-31T17:44:10;21.40;99.90
16767;DHT22;8501;49.926;8.404;2023-07-31T17:46:35;21.40;99.90
16767;DHT22;8501;49.926;8.404;2023-07-31T17:49:00;21.40;99.90
16767;DHT22;8501;49.926;8.404;2023-07-31T17:51:27;21.40;99.90
16767;DHT22;8501;49.926;8.404;2023-07-31T17:53:52;21.40;99.90
16767;DHT22;8501;49.926;8.404;2023-07-31T17:56:19;21.30;99.90
16767;DHT22;8501;49.926;8.404;2023-07-31T17:58:44;21.30;99.90